createdAt,value
2023-06-01T00:00:40.574Z,0.00
2023-06-01T00:01:41.018Z,0.00
2023-06-01T00:02:40.996Z,0.00
2023-06-01T00:03:40.568Z,0.00
2023-06-01T00:04:40.626Z,0.00
2023-06-01T00:05:40.509Z,0.00
2023-06-01T00:06:41.338Z,0.00
2023-06-01T00:07:40.501Z,0.00
2023-06-01T00:08:40.500Z,0.00
2023-06-01T00:09:40.480Z,0.00
2023-06-01T00:10:40.469Z,0.00
2023-06-01T00:11:40.799Z,0.00
2023-06-01T00:12:40.462Z,0.00
2023-06-01T00:13:40.434Z,0.00
2023-06-01T00:14:40.441Z,0.00
2023-06-01T00:15:40.799Z,0.00
2023-06-01T00:16:40.461Z,0.00
2023-06-01T00:17:40.410Z,0.00
2023-06-01T00:18:40.405Z,0.00
2023-06-01T00:19:40.390Z,0.00
2023-06-01T00:20:40.408Z,0.00
2023-06-01T00:21:40.451Z,0.00
2023-06-01T00:22:40.439Z,0.00
2023-06-01T00:23:40.353Z,0.00
2023-06-01T00:24:40.335Z,0.00
2023-06-01T00:25:40.650Z,0.00
2023-06-01T00:26:40.320Z,0.00
2023-06-01T00:27:40.323Z,0.00
2023-06-01T00:28:40.304Z,0.00
2023-06-01T00:29:40.317Z,0.00
2023-06-01T00:30:40.600Z,0.00
2023-06-01T00:31:40.361Z,0.00
2023-06-01T00:32:40.303Z,0.00
2023-06-01T00:33:40.250Z,0.00
2023-06-01T00:34:40.575Z,0.00
2023-06-01T00:35:40.254Z,0.00
2023-06-01T00:36:40.228Z,0.00
2023-06-01T00:37:40.215Z,0.00
2023-06-01T00:38:40.220Z,0.00
2023-06-01T00:39:40.717Z,0.00
2023-06-01T00:40:40.189Z,0.00
2023-06-01T00:41:40.187Z,0.00
2023-06-01T00:42:40.161Z,0.00
2023-06-01T00:43:40.492Z,0.00
2023-06-01T00:44:40.148Z,0.00
2023-06-01T00:45:40.139Z,0.00
2023-06-01T00:46:40.170Z,0.00
2023-06-01T00:47:40.160Z,0.00
2023-06-01T00:48:40.536Z,0.00
2023-06-01T00:49:40.106Z,0.00
2023-06-01T00:50:40.092Z,0.00
2023-06-01T00:51:40.090Z,0.00
2023-06-01T00:52:40.796Z,0.00
2023-06-01T00:53:40.410Z,0.00
2023-06-01T00:54:40.058Z,0.00
2023-06-01T00:55:40.054Z,0.00
2023-06-01T00:56:40.038Z,0.00
2023-06-01T00:57:40.337Z,0.00
2023-06-01T00:58:40.029Z,0.00
2023-06-01T00:59:40.016Z,0.00
2023-06-01T01:00:40.002Z,0.00
2023-06-01T01:01:40.137Z,0.00
2023-06-01T01:02:40.362Z,0.00
2023-06-01T01:03:39.981Z,0.00
2023-06-01T01:04:39.994Z,0.00
2023-06-01T01:05:39.965Z,0.00
2023-06-01T01:06:40.285Z,0.00
2023-06-01T01:07:40.335Z,0.00
2023-06-01T01:08:39.929Z,0.00
2023-06-01T01:09:39.931Z,0.00
2023-06-01T01:10:39.913Z,0.00
2023-06-01T01:11:40.735Z,0.00
2023-06-01T01:12:39.916Z,0.00
2023-06-01T01:13:39.898Z,0.00
2023-06-01T01:14:39.882Z,0.00
2023-06-01T01:15:39.880Z,0.00
2023-06-01T01:16:40.145Z,0.00
2023-06-01T01:17:40.054Z,0.00
2023-06-01T01:18:39.844Z,0.00
2023-06-01T01:19:39.844Z,0.00
2023-06-01T01:20:40.569Z,0.00
2023-06-01T01:21:40.270Z,0.00
2023-06-01T01:22:39.844Z,0.00
2023-06-01T01:23:39.822Z,0.00
2023-06-01T01:24:39.797Z,0.00
2023-06-01T01:25:40.208Z,0.00
2023-06-01T01:26:39.777Z,0.00
2023-06-01T01:27:39.775Z,0.00
2023-06-01T01:28:39.763Z,0.00
2023-06-01T01:29:40.102Z,0.00
2023-06-01T01:30:40.603Z,0.00
2023-06-01T01:31:39.831Z,0.00
2023-06-01T01:32:39.761Z,0.00
2023-06-01T01:33:39.726Z,0.00
2023-06-01T01:34:40.099Z,0.00
2023-06-01T01:35:39.709Z,0.00
2023-06-01T01:36:39.704Z,0.00
2023-06-01T01:37:39.682Z,0.00
2023-06-01T01:38:39.679Z,0.00
2023-06-01T01:39:40.034Z,0.00
2023-06-01T01:40:39.658Z,0.00
2023-06-01T01:41:39.655Z,0.00
2023-06-01T01:42:39.639Z,0.00
2023-06-01T01:43:39.934Z,0.00
2023-06-01T01:44:40.061Z,0.00
2023-06-01T01:45:39.625Z,0.00
2023-06-01T01:46:39.655Z,0.00
2023-06-01T01:47:39.759Z,0.00
2023-06-01T01:48:40.069Z,0.00
2023-06-01T01:49:39.594Z,0.00
2023-06-01T01:50:39.573Z,0.00
2023-06-01T01:51:39.569Z,0.00
2023-06-01T01:52:39.550Z,0.00
2023-06-01T01:53:39.936Z,0.00
2023-06-01T01:54:39.539Z,0.00
2023-06-01T01:55:39.531Z,0.00
2023-06-01T01:56:39.517Z,0.00
2023-06-01T01:57:39.904Z,0.00
2023-06-01T01:58:39.865Z,0.00
2023-06-01T01:59:39.502Z,0.00
2023-06-01T02:00:39.484Z,0.00
2023-06-01T02:01:39.526Z,0.00
2023-06-01T02:02:39.812Z,0.00
2023-06-01T02:03:39.555Z,0.00
2023-06-01T02:04:39.446Z,0.00
2023-06-01T02:05:39.442Z,0.00
2023-06-01T02:06:39.441Z,0.00
2023-06-01T02:07:40.092Z,0.00
2023-06-01T02:08:39.426Z,0.00
2023-06-01T02:09:39.405Z,0.00
2023-06-01T02:10:39.395Z,0.00
2023-06-01T02:11:40.320Z,0.00
2023-06-01T02:12:39.712Z,0.00
2023-06-01T02:13:39.365Z,0.00
2023-06-01T02:14:39.358Z,0.00
2023-06-01T02:15:39.355Z,0.00
2023-06-01T02:16:39.746Z,0.00
2023-06-01T02:17:39.338Z,0.00
2023-06-01T02:18:39.319Z,0.00
2023-06-01T02:19:39.305Z,0.00
2023-06-01T02:20:39.303Z,0.00
2023-06-01T02:21:40.093Z,0.00
2023-06-01T02:22:39.280Z,0.00
2023-06-01T02:23:39.269Z,0.00
2023-06-01T02:24:39.267Z,0.00
2023-06-01T02:25:39.697Z,0.00
2023-06-01T02:26:39.594Z,0.00
2023-06-01T02:27:39.252Z,0.00
2023-06-01T02:28:39.178Z,1.00
2023-06-01T02:29:39.216Z,0.00
2023-06-01T02:30:40.111Z,0.00
2023-06-01T02:31:39.177Z,1.00
2023-06-01T02:32:39.165Z,1.00
2023-06-01T02:33:39.129Z,1.00
2023-06-01T02:34:39.130Z,1.00
2023-06-01T02:35:39.822Z,2.00
2023-06-01T02:36:39.113Z,2.00
2023-06-01T02:37:39.102Z,2.00
2023-06-01T02:38:39.097Z,1.00
2023-06-01T02:39:39.352Z,1.00
2023-06-01T02:40:39.893Z,0.00
2023-06-01T02:41:39.070Z,2.00
2023-06-01T02:42:39.049Z,2.00
2023-06-01T02:43:39.046Z,5.00
2023-06-01T02:44:39.380Z,6.00
2023-06-01T02:45:39.042Z,5.00
2023-06-01T02:46:39.035Z,2.00
2023-06-01T02:47:39.010Z,1.00
2023-06-01T02:48:38.999Z,5.00
2023-06-01T02:49:39.519Z,5.00
2023-06-01T02:50:38.982Z,6.00
2023-06-01T02:51:38.968Z,5.00
2023-06-01T02:52:38.965Z,7.00
2023-06-01T02:53:39.725Z,6.00
2023-06-01T02:54:39.348Z,9.00
2023-06-01T02:55:38.931Z,10.00
2023-06-01T02:56:38.924Z,17.00
2023-06-01T02:57:38.911Z,13.00
2023-06-01T02:58:39.239Z,15.00
2023-06-01T02:59:38.890Z,15.00
2023-06-01T03:00:38.889Z,20.00
2023-06-01T03:01:38.914Z,23.00
2023-06-01T03:02:38.887Z,22.00
2023-06-01T03:03:39.232Z,29.00
2023-06-01T03:04:38.855Z,31.00
2023-06-01T03:05:38.837Z,35.00
2023-06-01T03:06:39.140Z,36.00
2023-06-01T03:07:39.144Z,36.00
2023-06-01T03:08:39.185Z,43.00
2023-06-01T03:09:38.801Z,49.00
2023-06-01T03:10:38.820Z,55.00
2023-06-01T03:11:38.782Z,62.00
2023-06-01T03:12:39.117Z,62.00
2023-06-01T03:13:38.768Z,71.00
2023-06-01T03:14:38.764Z,76.00
2023-06-01T03:15:38.791Z,82.00
2023-06-01T03:16:38.759Z,91.00
2023-06-01T03:17:39.114Z,94.00
2023-06-01T03:18:39.368Z,104.00
2023-06-01T03:19:38.722Z,108.00
2023-06-01T03:20:38.721Z,118.00
2023-06-01T03:21:38.893Z,124.00
2023-06-01T03:22:39.028Z,138.00
2023-06-01T03:23:38.738Z,146.00
2023-06-01T03:24:38.714Z,155.00
2023-06-01T03:25:38.662Z,166.00
2023-06-01T03:26:39.148Z,175.00
2023-06-01T03:27:38.654Z,189.00
2023-06-01T03:28:38.639Z,195.00
2023-06-01T03:29:38.619Z,207.00
2023-06-01T03:30:38.614Z,220.00
2023-06-01T03:31:38.992Z,230.00
2023-06-01T03:32:38.657Z,245.00
2023-06-01T03:33:38.583Z,258.00
2023-06-01T03:34:38.578Z,264.00
2023-06-01T03:35:38.839Z,283.00
2023-06-01T03:36:38.872Z,297.00
2023-06-01T03:37:38.542Z,310.00
2023-06-01T03:38:38.543Z,321.00
2023-06-01T03:39:38.522Z,334.00
2023-06-01T03:40:38.998Z,350.00
2023-06-01T03:41:38.513Z,371.00
2023-06-01T03:42:38.501Z,385.00
2023-06-01T03:43:38.497Z,399.00
2023-06-01T03:44:38.483Z,416.00
2023-06-01T03:45:38.971Z,433.00
2023-06-01T03:46:38.494Z,443.00
2023-06-01T03:47:38.528Z,460.00
2023-06-01T03:48:38.458Z,476.00
2023-06-01T03:49:38.957Z,494.00
2023-06-01T03:50:38.798Z,507.00
2023-06-01T03:51:38.436Z,520.00
2023-06-01T03:52:38.449Z,541.00
2023-06-01T03:53:38.400Z,560.00
2023-06-01T03:54:38.750Z,580.00
2023-06-01T03:55:38.380Z,592.00
2023-06-01T03:56:38.379Z,613.00
2023-06-01T03:57:38.366Z,625.00
2023-06-01T03:58:38.357Z,644.00
2023-06-01T03:59:38.355Z,662.00
2023-06-01T04:00:38.345Z,678.00
2023-06-01T04:01:40.240Z,697.00
2023-06-01T04:02:38.407Z,708.00
2023-06-01T04:03:38.838Z,731.00
2023-06-01T04:04:38.818Z,747.00
2023-06-01T04:05:38.305Z,765.00
2023-06-01T04:06:38.300Z,788.00
2023-06-01T04:07:38.276Z,802.00
2023-06-01T04:08:38.298Z,823.00
2023-06-01T04:09:38.251Z,835.00
2023-06-01T04:10:38.252Z,861.00
2023-06-01T04:11:38.241Z,877.00
2023-06-01T04:12:38.234Z,895.00
2023-06-01T04:13:38.563Z,918.00
2023-06-01T04:14:38.216Z,949.00
2023-06-01T04:15:38.198Z,963.00
2023-06-01T04:16:38.222Z,984.00
2023-06-01T04:17:38.258Z,992.00
2023-06-01T04:18:38.191Z,1009.00
2023-06-01T04:19:38.162Z,1023.00
2023-06-01T04:20:38.161Z,1048.00
2023-06-01T04:21:38.211Z,1063.00
2023-06-01T04:22:38.162Z,1083.00
2023-06-01T04:23:38.136Z,1096.00
2023-06-01T04:24:38.129Z,1113.00
2023-06-01T04:25:38.113Z,1131.00
2023-06-01T04:26:38.107Z,1142.00
2023-06-01T04:27:38.112Z,1162.00
2023-06-01T04:28:38.092Z,1183.00
2023-06-01T04:29:38.113Z,1203.00
2023-06-01T04:30:38.068Z,1226.00
2023-06-01T04:31:38.432Z,1242.00
2023-06-01T04:32:38.400Z,1258.00
2023-06-01T04:33:38.039Z,1265.00
2023-06-01T04:34:38.032Z,1114.00
2023-06-01T04:35:38.031Z,1018.00
2023-06-01T04:36:38.062Z,1381.00
2023-06-01T04:37:37.994Z,1491.00
2023-06-01T04:38:37.993Z,1464.00
2023-06-01T04:39:37.974Z,1391.00
2023-06-01T04:40:37.993Z,1985.00
2023-06-01T04:41:38.312Z,1507.00
2023-06-01T04:42:37.959Z,734.00
2023-06-01T04:43:37.950Z,1353.00
2023-06-01T04:44:37.944Z,2464.00
2023-06-01T04:45:37.958Z,2093.00
2023-06-01T04:46:38.183Z,1427.00
2023-06-01T04:47:37.932Z,2410.00
2023-06-01T04:48:37.901Z,1971.00
2023-06-01T04:49:37.893Z,2087.00
2023-06-01T04:50:38.631Z,1782.00
2023-06-01T04:51:37.942Z,1879.00
2023-06-01T04:52:38.411Z,2029.00
2023-06-01T04:53:37.852Z,1599.00
2023-06-01T04:54:37.869Z,1445.00
2023-06-01T04:55:37.871Z,1618.00
2023-06-01T04:56:37.846Z,2023.00
2023-06-01T04:57:37.839Z,1647.00
2023-06-01T04:58:37.817Z,1457.00
2023-06-01T04:59:38.150Z,763.00
2023-06-01T05:00:37.804Z,1224.00
2023-06-01T05:01:37.815Z,639.00
2023-06-01T05:02:37.805Z,1877.00
2023-06-01T05:03:37.801Z,1971.00
2023-06-01T05:04:38.103Z,1058.00
2023-06-01T05:05:39.319Z,1687.00
2023-06-01T05:06:37.755Z,1427.00
2023-06-01T05:07:37.730Z,1305.00
2023-06-01T05:08:37.790Z,1106.00
2023-06-01T05:09:38.035Z,952.00
2023-06-01T05:10:37.719Z,1095.00
2023-06-01T05:11:37.700Z,1094.00
2023-06-01T05:12:37.700Z,1144.00
2023-06-01T05:13:37.829Z,990.00
2023-06-01T05:14:37.685Z,1395.00
2023-06-01T05:15:37.663Z,714.00
2023-06-01T05:16:37.790Z,1009.00
2023-06-01T05:17:37.663Z,841.00
2023-06-01T05:18:37.673Z,1059.00
2023-06-01T05:19:37.632Z,1696.00
2023-06-01T05:20:37.630Z,882.00
2023-06-01T05:21:37.668Z,1252.00
2023-06-01T05:22:37.941Z,1514.00
2023-06-01T05:23:38.098Z,1244.00
2023-06-01T05:24:37.599Z,1647.00
2023-06-01T05:25:37.581Z,1101.00
2023-06-01T05:26:37.591Z,996.00
2023-06-01T05:27:37.580Z,1246.00
2023-06-01T05:28:37.578Z,1055.00
2023-06-01T05:29:37.541Z,1208.00
2023-06-01T05:30:37.549Z,1053.00
2023-06-01T05:31:37.592Z,1475.00
2023-06-01T05:32:37.924Z,1297.00
2023-06-01T05:33:37.513Z,1161.00
2023-06-01T05:34:37.510Z,1239.00
2023-06-01T05:35:37.497Z,1552.00
2023-06-01T05:36:37.676Z,969.00
2023-06-01T05:37:37.494Z,1880.00
2023-06-01T05:38:37.469Z,1692.00
2023-06-01T05:39:37.452Z,1170.00
2023-06-01T05:40:37.455Z,1103.00
2023-06-01T05:41:38.117Z,1874.00
2023-06-01T05:42:37.428Z,1191.00
2023-06-01T05:43:37.415Z,895.00
2023-06-01T05:44:37.415Z,1142.00
2023-06-01T05:45:37.451Z,1848.00
2023-06-01T05:46:37.430Z,1339.00
2023-06-01T05:47:37.436Z,1921.00
2023-06-01T05:48:39.274Z,1610.00
2023-06-01T05:49:37.370Z,1415.00
2023-06-01T05:50:37.373Z,1846.00
2023-06-01T05:51:38.066Z,1411.00
2023-06-01T05:52:37.338Z,2125.00
2023-06-01T05:53:37.325Z,1500.00
2023-06-01T05:54:37.320Z,1624.00
2023-06-01T05:55:37.850Z,1706.00
2023-06-01T05:56:37.299Z,1593.00
2023-06-01T05:57:37.285Z,1686.00
2023-06-01T05:58:37.285Z,1783.00
2023-06-01T05:59:37.268Z,664.00
2023-06-01T06:00:37.613Z,1245.00
2023-06-01T06:01:37.464Z,1370.00
2023-06-01T06:02:37.306Z,1529.00
2023-06-01T06:03:37.313Z,1017.00
2023-06-01T06:04:38.100Z,1394.00
2023-06-01T06:05:37.225Z,1510.00
2023-06-01T06:06:37.251Z,1166.00
2023-06-01T06:07:37.543Z,1113.00
2023-06-01T06:08:37.209Z,1287.00
2023-06-01T06:09:37.498Z,1425.00
2023-06-01T06:10:37.194Z,745.00
2023-06-01T06:11:37.166Z,931.00
2023-06-01T06:12:37.169Z,1201.00
2023-06-01T06:13:37.859Z,712.00
2023-06-01T06:14:37.649Z,1049.00
2023-06-01T06:15:37.147Z,1157.00
2023-06-01T06:16:37.138Z,1032.00
2023-06-01T06:17:37.189Z,1075.00
2023-06-01T06:18:37.457Z,1106.00
2023-06-01T06:19:37.104Z,1442.00
2023-06-01T06:20:37.103Z,1276.00
2023-06-01T06:21:37.188Z,884.00
2023-06-01T06:22:37.086Z,1445.00
2023-06-01T06:23:37.912Z,1667.00
2023-06-01T06:24:37.070Z,1787.00
2023-06-01T06:25:37.077Z,1439.00
2023-06-01T06:26:37.054Z,1198.00
2023-06-01T06:27:37.500Z,2439.00
2023-06-01T06:28:37.426Z,827.00
2023-06-01T06:29:37.033Z,1335.00
2023-06-01T06:30:37.014Z,1810.00
2023-06-01T06:31:37.054Z,1499.00
2023-06-01T06:32:37.816Z,1304.00
2023-06-01T06:33:36.988Z,1238.00
2023-06-01T06:34:36.977Z,1583.00
2023-06-01T06:35:36.974Z,693.00
2023-06-01T06:36:36.964Z,1718.00
2023-06-01T06:37:37.251Z,1536.00
2023-06-01T06:38:36.943Z,1420.00
2023-06-01T06:39:36.942Z,1361.00
2023-06-01T06:40:36.924Z,1351.00
2023-06-01T06:41:37.288Z,1516.00
2023-06-01T06:42:37.598Z,2028.00
2023-06-01T06:43:36.902Z,2247.00
2023-06-01T06:44:36.900Z,1003.00
2023-06-01T06:45:36.887Z,2189.00
2023-06-01T06:46:37.245Z,1855.00
2023-06-01T06:47:36.896Z,1508.00
2023-06-01T06:48:36.851Z,1558.00
2023-06-01T06:49:36.874Z,1758.00
2023-06-01T06:50:36.841Z,1207.00
2023-06-01T06:51:37.624Z,1941.00
2023-06-01T06:52:36.836Z,2082.00
2023-06-01T06:53:36.820Z,2097.00
2023-06-01T06:54:36.813Z,2026.00
2023-06-01T06:55:37.149Z,1916.00
2023-06-01T06:56:37.163Z,2136.00
2023-06-01T06:57:36.779Z,1806.00
2023-06-01T06:58:36.776Z,1959.00
2023-06-01T06:59:36.790Z,1521.00
2023-06-01T07:00:37.139Z,1686.00
2023-06-01T07:01:38.688Z,1699.00
2023-06-01T07:02:36.801Z,1600.00
2023-06-01T07:03:36.800Z,2299.00
2023-06-01T07:04:36.723Z,2210.00
2023-06-01T07:05:37.461Z,2332.00
2023-06-01T07:06:36.705Z,2392.00
2023-06-01T07:07:36.707Z,2624.00
2023-06-01T07:08:36.683Z,2377.00
2023-06-01T07:09:37.151Z,2933.00
2023-06-01T07:10:37.029Z,2598.00
2023-06-01T07:11:36.662Z,2784.00
2023-06-01T07:12:36.659Z,2461.00
2023-06-01T07:13:36.650Z,2090.00
2023-06-01T07:14:36.999Z,2604.00
2023-06-01T07:15:36.632Z,2414.00
2023-06-01T07:16:36.674Z,2183.00
2023-06-01T07:17:36.642Z,3822.00
2023-06-01T07:18:36.600Z,2051.00
2023-06-01T07:19:36.875Z,2403.00
2023-06-01T07:20:36.577Z,2161.00
2023-06-01T07:21:36.595Z,1648.00
2023-06-01T07:22:36.568Z,1147.00
2023-06-01T07:23:36.596Z,2329.00
2023-06-01T07:24:36.893Z,2334.00
2023-06-01T07:25:36.555Z,2334.00
2023-06-01T07:26:36.527Z,3298.00
2023-06-01T07:27:36.529Z,1381.00
2023-06-01T07:28:36.854Z,2205.00
2023-06-01T07:29:36.526Z,2453.00
2023-06-01T07:30:36.520Z,2705.00
2023-06-01T07:31:36.695Z,2690.00
2023-06-01T07:32:36.673Z,2968.00
2023-06-01T07:33:37.352Z,3161.00
2023-06-01T07:34:36.464Z,3087.00
2023-06-01T07:35:36.467Z,2466.00
2023-06-01T07:36:36.448Z,3318.00
2023-06-01T07:37:36.733Z,23143.00
2023-06-01T07:38:36.438Z,6995.00
2023-06-01T07:39:36.439Z,5045.00
2023-06-01T07:40:36.406Z,4810.00
2023-06-01T07:41:36.398Z,5464.00
2023-06-01T07:42:37.148Z,4876.00
2023-06-01T07:43:36.381Z,4266.00
2023-06-01T07:44:36.363Z,3159.00
2023-06-01T07:45:36.370Z,3606.00
2023-06-01T07:46:36.367Z,5990.00
2023-06-01T07:47:36.411Z,6662.00
2023-06-01T07:48:36.328Z,5374.00
2023-06-01T07:49:36.334Z,4770.00
2023-06-01T07:50:36.307Z,4906.00
2023-06-01T07:51:37.096Z,4586.00
2023-06-01T07:52:37.004Z,4963.00
2023-06-01T07:53:36.299Z,3807.00
2023-06-01T07:54:36.306Z,8583.00
2023-06-01T07:55:36.262Z,7436.00
2023-06-01T07:56:36.302Z,6359.00
2023-06-01T07:57:36.244Z,4533.00
2023-06-01T07:58:36.238Z,4734.00
2023-06-01T07:59:36.229Z,4904.00
2023-06-01T08:00:36.211Z,4313.00
2023-06-01T08:01:36.653Z,4373.00
2023-06-01T08:02:36.278Z,4444.00
2023-06-01T08:03:36.272Z,3744.00
2023-06-01T08:04:36.163Z,3893.00
2023-06-01T08:05:38.686Z,20000.00
2023-06-01T08:06:36.168Z,9341.00
2023-06-01T08:07:36.132Z,4594.00
2023-06-01T08:08:36.122Z,26988.00
2023-06-01T08:09:36.124Z,7972.00
2023-06-01T08:10:36.517Z,7720.00
2023-06-01T08:11:36.093Z,21735.00
2023-06-01T08:12:36.091Z,10714.00
2023-06-01T08:13:36.071Z,11148.00
2023-06-01T08:14:36.049Z,4936.00
2023-06-01T08:15:36.410Z,29068.00
2023-06-01T08:16:36.060Z,17345.00
2023-06-01T08:17:36.169Z,9971.00
2023-06-01T08:18:36.015Z,7786.00
2023-06-01T08:19:36.396Z,10177.00
2023-06-01T08:20:36.899Z,3565.00
2023-06-01T08:21:36.012Z,22435.00
2023-06-01T08:22:35.981Z,4733.00
2023-06-01T08:23:35.973Z,17288.00
2023-06-01T08:24:36.358Z,20861.00
2023-06-01T08:25:35.953Z,25939.00
2023-06-01T08:26:35.936Z,23398.00
2023-06-01T08:27:35.930Z,6369.00
2023-06-01T08:28:35.921Z,24609.00
2023-06-01T08:30:35.912Z,4823.00
2023-06-01T08:31:35.938Z,22544.00
2023-06-01T08:32:35.906Z,6477.00
2023-06-01T08:33:36.204Z,23491.00
2023-06-01T08:34:36.197Z,19263.00
2023-06-01T08:35:35.843Z,10103.00
2023-06-01T08:36:35.812Z,10142.00
2023-06-01T08:37:35.804Z,11476.00
2023-06-01T08:38:35.816Z,12021.00
2023-06-01T08:39:35.790Z,14304.00
2023-06-01T08:40:35.762Z,9674.00
2023-06-01T08:41:35.758Z,11489.00
2023-06-01T08:42:35.742Z,9621.00
2023-06-01T08:43:36.419Z,4858.00
2023-06-01T08:44:35.719Z,22433.00
2023-06-01T08:45:35.726Z,12926.00
2023-06-01T08:46:35.758Z,16754.00
2023-06-01T08:47:36.084Z,14014.00
2023-06-01T08:48:36.021Z,14531.00
2023-06-01T08:49:35.685Z,9768.00
2023-06-01T08:50:35.650Z,14115.00
2023-06-01T08:51:35.649Z,15128.00
2023-06-01T08:52:36.533Z,10483.00
2023-06-01T08:53:35.630Z,8513.00
2023-06-01T08:54:35.611Z,8666.00
2023-06-01T08:55:35.598Z,4803.00
2023-06-01T08:56:35.583Z,6072.00
2023-06-01T08:57:35.800Z,6069.00
2023-06-01T08:58:35.563Z,9482.00
2023-06-01T08:59:35.551Z,5691.00
2023-06-01T09:00:35.540Z,6873.00
2023-06-01T09:01:35.596Z,9402.00
2023-06-01T09:02:36.289Z,5095.00
2023-06-01T09:03:35.533Z,7076.00
2023-06-01T09:04:35.496Z,7634.00
2023-06-01T09:05:35.484Z,5900.00
2023-06-01T09:06:35.783Z,9080.00
2023-06-01T09:07:35.781Z,3395.00
2023-06-01T09:08:35.511Z,9538.00
2023-06-01T09:09:35.557Z,7324.00
2023-06-01T09:10:35.426Z,7038.00
2023-06-01T09:11:35.792Z,6336.00
2023-06-01T09:12:35.404Z,6201.00
2023-06-01T09:13:35.427Z,5337.00
2023-06-01T09:14:35.381Z,5967.00
2023-06-01T09:15:35.378Z,7157.00
2023-06-01T09:16:35.727Z,8589.00
2023-06-01T09:17:35.409Z,7012.00
2023-06-01T09:18:35.342Z,4678.00
2023-06-01T09:19:35.335Z,4147.00
2023-06-01T09:20:36.185Z,9131.00
2023-06-01T09:21:35.354Z,11731.00
2023-06-01T09:22:35.301Z,8719.00
2023-06-01T09:23:35.296Z,6998.00
2023-06-01T09:24:35.610Z,5895.00
2023-06-01T09:25:35.690Z,7912.00
2023-06-01T09:26:35.253Z,8184.00
2023-06-01T09:27:35.246Z,6262.00
2023-06-01T09:28:35.233Z,5520.00
2023-06-01T09:29:35.238Z,6197.00
2023-06-01T09:30:35.689Z,6856.00
2023-06-01T09:31:35.254Z,8174.00
2023-06-01T09:32:35.201Z,7136.00
2023-06-01T09:33:35.178Z,8502.00
2023-06-01T09:34:35.851Z,11063.00
2023-06-01T09:35:35.867Z,11527.00
2023-06-01T09:36:35.157Z,12682.00
2023-06-01T09:37:35.135Z,13025.00
2023-06-01T09:38:35.131Z,9027.00
2023-06-01T09:39:35.440Z,7194.00
2023-06-01T09:40:35.099Z,7795.00
2023-06-01T09:41:35.096Z,7362.00
2023-06-01T09:42:35.074Z,6347.00
2023-06-01T09:43:35.076Z,5143.00
2023-06-01T09:44:35.552Z,4000.00
2023-06-01T09:45:35.063Z,3637.00
2023-06-01T09:46:35.048Z,3238.00
2023-06-01T09:47:35.149Z,3207.00
2023-06-01T09:48:35.383Z,3234.00
2023-06-01T09:49:35.366Z,3260.00
2023-06-01T09:50:34.999Z,3091.00
2023-06-01T09:51:34.990Z,2914.00
2023-06-01T09:52:34.964Z,2863.00
2023-06-01T09:53:35.666Z,2746.00
2023-06-01T09:54:34.955Z,2780.00
2023-06-01T09:55:34.948Z,2465.00
2023-06-01T09:56:34.923Z,2406.00
2023-06-01T09:57:34.913Z,2386.00
2023-06-01T09:58:34.919Z,2373.00
2023-06-01T09:59:34.904Z,2373.00
2023-06-01T10:00:34.886Z,2370.00
2023-06-01T10:01:34.999Z,2366.00
2023-06-01T10:02:35.702Z,2368.00
2023-06-01T10:03:35.457Z,2369.00
2023-06-01T10:04:34.854Z,2398.00
2023-06-01T10:05:34.834Z,2404.00
2023-06-01T10:06:34.823Z,2412.00
2023-06-01T10:07:35.157Z,2420.00
2023-06-01T10:08:34.812Z,2416.00
2023-06-01T10:09:34.798Z,2412.00
2023-06-01T10:10:34.779Z,2406.00
2023-06-01T10:11:34.777Z,2412.00
2023-06-01T10:12:35.200Z,2424.00
2023-06-01T10:13:34.754Z,2410.00
2023-06-01T10:14:34.747Z,2410.00
2023-06-01T10:15:34.743Z,2420.00
2023-06-01T10:16:35.064Z,2432.00
2023-06-01T10:17:35.735Z,2444.00
2023-06-01T10:18:34.699Z,2458.00
2023-06-01T10:19:34.692Z,2717.00
2023-06-01T10:20:34.679Z,2293.00
2023-06-01T10:21:35.501Z,2298.00
2023-06-01T10:22:34.661Z,2502.00
2023-06-01T10:23:34.654Z,2176.00
2023-06-01T10:24:34.636Z,2337.00
2023-06-01T10:25:34.982Z,2453.00
2023-06-01T10:26:35.174Z,2501.00
2023-06-01T10:27:34.637Z,2520.00
2023-06-01T10:28:34.624Z,2537.00
2023-06-01T10:29:34.588Z,2533.00
2023-06-01T10:30:34.925Z,2518.00
2023-06-01T10:31:34.954Z,2501.00
2023-06-01T10:32:34.589Z,2505.00
2023-06-01T10:33:34.566Z,2447.00
2023-06-01T10:34:34.575Z,2449.00
2023-06-01T10:35:35.257Z,2538.00
2023-06-01T10:36:34.516Z,2543.00
2023-06-01T10:37:34.511Z,2555.00
2023-06-01T10:38:34.497Z,2568.00
2023-06-01T10:39:36.085Z,2580.00
2023-06-01T10:40:34.792Z,2607.00
2023-06-01T10:41:34.505Z,2632.00
2023-06-01T10:42:34.455Z,2656.00
2023-06-01T10:43:34.448Z,2692.00
2023-06-01T10:44:35.206Z,2724.00
2023-06-01T10:45:34.435Z,2819.00
2023-06-01T10:46:34.470Z,2936.00
2023-06-01T10:47:34.402Z,3067.00
2023-06-01T10:48:34.396Z,3193.00
2023-06-01T10:49:34.898Z,3169.00
2023-06-01T10:50:34.379Z,3029.00
2023-06-01T10:51:34.352Z,2776.00
2023-06-01T10:52:34.434Z,2736.00
2023-06-01T10:53:34.359Z,2716.00
2023-06-01T10:54:34.738Z,2707.00
2023-06-01T10:55:34.308Z,2714.00
2023-06-01T10:56:34.321Z,2705.00
2023-06-01T10:57:34.308Z,2681.00
2023-06-01T10:58:34.317Z,2658.00
2023-06-01T10:59:34.277Z,2619.00
2023-06-01T11:00:34.295Z,2595.00
2023-06-01T11:01:34.306Z,2590.00
2023-06-01T11:02:34.292Z,2565.00
2023-06-01T11:03:34.379Z,2551.00
2023-06-01T11:04:34.331Z,2553.00
2023-06-01T11:05:34.226Z,2548.00
2023-06-01T11:06:34.209Z,2548.00
2023-06-01T11:07:34.487Z,2539.00
2023-06-01T11:08:34.554Z,2525.00
2023-06-01T11:09:34.175Z,2525.00
2023-06-01T11:10:34.166Z,2527.00
2023-06-01T11:11:34.157Z,2521.00
2023-06-01T11:12:34.466Z,2525.00
2023-06-01T11:13:34.135Z,2527.00
2023-06-01T11:14:34.151Z,2528.00
2023-06-01T11:15:34.128Z,2525.00
2023-06-01T11:16:34.230Z,2533.00
2023-06-01T11:17:34.630Z,2530.00
2023-06-01T11:18:34.084Z,2532.00
2023-06-01T11:19:34.064Z,2528.00
2023-06-01T11:20:34.076Z,2533.00
2023-06-01T11:21:34.891Z,2543.00
2023-06-01T11:22:34.358Z,2544.00
2023-06-01T11:23:34.026Z,2544.00
2023-06-01T11:24:34.031Z,2552.00
2023-06-01T11:25:34.016Z,2558.00
2023-06-01T11:26:34.034Z,2561.00
2023-06-01T11:27:33.994Z,2542.00
2023-06-01T11:28:33.991Z,2528.00
2023-06-01T11:29:33.972Z,2519.00
2023-06-01T11:30:33.957Z,2500.00
2023-06-01T11:31:34.335Z,2484.00
2023-06-01T11:32:34.030Z,2476.00
2023-06-01T11:33:34.757Z,2457.00
2023-06-01T11:34:33.917Z,2452.00
2023-06-01T11:35:34.418Z,2434.00
2023-06-01T11:36:33.911Z,2428.00
2023-06-01T11:37:33.883Z,2420.00
2023-06-01T11:38:33.877Z,2423.00
2023-06-01T11:39:33.886Z,2416.00
2023-06-01T11:40:38.296Z,2398.00
2023-06-01T11:41:33.846Z,2381.00
2023-06-01T11:42:33.834Z,2363.00
2023-06-01T11:43:33.825Z,2312.00
2023-06-01T11:44:33.819Z,2294.00
2023-06-01T11:45:34.120Z,2382.00
2023-06-01T11:46:33.838Z,2395.00
2023-06-01T11:47:33.816Z,2423.00
2023-06-01T11:48:33.767Z,2438.00
2023-06-01T11:49:33.763Z,2440.00
2023-06-01T11:50:34.063Z,2444.00
2023-06-01T11:51:33.741Z,2461.00
2023-06-01T11:52:33.723Z,2467.00
2023-06-01T11:53:33.710Z,2472.00
2023-06-01T11:54:34.046Z,2482.00
2023-06-01T11:55:33.691Z,2482.00
2023-06-01T11:56:33.690Z,2472.00
2023-06-01T11:57:33.686Z,2467.00
2023-06-01T11:58:33.681Z,2427.00
2023-06-01T11:59:33.990Z,2392.00
2023-06-01T12:00:33.647Z,2471.00
2023-06-01T12:01:33.631Z,2460.00
2023-06-01T12:02:33.659Z,2455.00
2023-06-01T12:03:34.049Z,2476.00
2023-06-01T12:04:34.016Z,2481.00
2023-06-01T12:05:33.588Z,2480.00
2023-06-01T12:06:33.590Z,2472.00
2023-06-01T12:07:33.576Z,2471.00
2023-06-01T12:08:33.982Z,2470.00
2023-06-01T12:09:33.550Z,2428.00
2023-06-01T12:10:33.548Z,2337.00
2023-06-01T12:11:33.529Z,2150.00
2023-06-01T12:12:33.531Z,1962.00
2023-06-01T12:13:33.970Z,2070.00
2023-06-01T12:14:33.542Z,2357.00
2023-06-01T12:15:33.509Z,2475.00
2023-06-01T12:16:33.575Z,2444.00
2023-06-01T12:17:33.999Z,2335.00
2023-06-01T12:18:33.885Z,2303.00
2023-06-01T12:19:33.504Z,2443.00
2023-06-01T12:20:33.460Z,2481.00
2023-06-01T12:21:33.482Z,2513.00
2023-06-01T12:22:33.764Z,2510.00
2023-06-01T12:23:33.424Z,2509.00
2023-06-01T12:24:33.404Z,2511.00
2023-06-01T12:25:33.404Z,2530.00